Terminal Aerodrome Forecast
Issued by NWS

Home | Current Version | Previous Version | Text Only | Print | Product List | Glossary Off
Versions: 1 2 3 4 5 6 7 8 9 10 11 12 13 14 15 16 17 18 19 20 21

000
FTUS43 KUNR 230500 AAA
TAFGCC
TAF AMD
KGCC 230513Z 2305/2324 03017KT P6SM SKC
     FM230700 VRB06KT P6SM SKC
     FM231000 16009KT P6SM SKC
     FM231800 15010G20KT P6SM SKC=

USA.gov is the U.S. government's official web portal to all federal, state and local government web resources and services.